createdAt,value
2022-08-03T00:00:48.038Z,1.55
2022-08-03T00:01:50.014Z,1.60
2022-08-03T00:02:51.742Z,1.60
2022-08-03T00:03:53.611Z,1.80
2022-08-03T00:04:55.319Z,1.60
2022-08-03T00:06:03.516Z,1.60
2022-08-03T00:07:06.725Z,1.73
2022-08-03T00:08:08.541Z,1.77
2022-08-03T00:09:11.165Z,1.83
2022-08-03T00:10:13.723Z,1.52
2022-08-03T00:11:15.475Z,1.58
2022-08-03T00:12:17.374Z,1.52
2022-08-03T00:13:20.028Z,1.80
2022-08-03T00:14:21.730Z,1.63
2022-08-03T00:15:23.541Z,1.67
2022-08-03T00:16:27.573Z,1.70
2022-08-03T00:17:29.491Z,1.58
2022-08-03T00:18:51.688Z,1.55
2022-08-03T00:19:53.440Z,1.63
2022-08-03T00:20:55.234Z,1.67
2022-08-03T00:21:57.086Z,1.85
2022-08-03T00:22:58.852Z,1.70
2022-08-03T00:24:00.643Z,1.60
2022-08-03T00:25:02.398Z,1.58
2022-08-03T00:26:04.216Z,1.70
2022-08-03T00:27:05.989Z,1.80
2022-08-03T00:28:08.010Z,1.60
2022-08-03T00:29:10.394Z,1.50
2022-08-03T00:30:12.303Z,1.60
2022-08-03T00:31:16.994Z,1.60
2022-08-03T00:32:28.177Z,1.65
2022-08-03T00:33:29.887Z,1.50
2022-08-03T00:34:57.915Z,1.50
2022-08-03T00:36:00.854Z,1.80
2022-08-03T00:37:02.576Z,1.90
2022-08-03T00:38:04.986Z,1.60
2022-08-03T00:39:06.688Z,1.70
2022-08-03T00:40:10.686Z,1.67
2022-08-03T00:41:12.416Z,1.60
2022-08-03T00:42:17.665Z,1.83
2022-08-03T00:43:19.586Z,1.70
2022-08-03T00:44:22.111Z,1.48
2022-08-03T00:45:27.082Z,1.67
2022-08-03T00:46:28.797Z,1.55
2022-08-03T00:47:30.500Z,1.80
2022-08-03T00:48:33.714Z,1.80
2022-08-03T00:49:36.074Z,1.70
2022-08-03T00:50:42.762Z,1.80
2022-08-03T00:51:44.664Z,1.70
2022-08-03T00:52:47.003Z,1.70
2022-08-03T00:53:49.544Z,1.60
2022-08-03T00:54:51.362Z,1.90
2022-08-03T00:55:53.170Z,1.75
2022-08-03T00:56:59.844Z,1.80
2022-08-03T00:58:06.767Z,1.90
2022-08-03T00:59:10.371Z,1.60
2022-08-03T01:00:14.671Z,2.05
2022-08-03T01:01:16.445Z,1.90
2022-08-03T01:02:19.593Z,2.00
2022-08-03T01:03:21.364Z,1.65
2022-08-03T01:04:23.117Z,1.85
2022-08-03T01:05:25.546Z,1.60
2022-08-03T01:06:43.641Z,1.90
2022-08-03T01:08:06.497Z,1.58
2022-08-03T01:09:31.191Z,1.80
2022-08-03T01:10:47.506Z,1.80
2022-08-03T01:12:08.461Z,1.73
2022-08-03T01:13:59.966Z,2.03
2022-08-03T01:14:50.443Z,1.90
2022-08-03T01:16:01.231Z,1.70
2022-08-03T01:17:17.583Z,1.77
2022-08-03T01:18:25.973Z,1.73
2022-08-03T01:19:45.748Z,1.67
2022-08-03T01:20:55.998Z,1.77
2022-08-03T01:22:34.431Z,1.70
2022-08-03T01:23:41.822Z,1.85
2022-08-03T01:25:05.181Z,1.90
2022-08-03T01:26:40.908Z,1.98
2022-08-03T01:27:45.285Z,1.80
2022-08-03T01:29:24.006Z,1.70
2022-08-03T01:30:31.672Z,1.83
2022-08-03T01:33:02.686Z,1.60
2022-08-03T01:33:06.454Z,1.95
2022-08-03T01:34:14.644Z,1.80
2022-08-03T01:35:28.181Z,1.90
2022-08-03T01:36:38.415Z,1.75
2022-08-03T01:37:45.444Z,1.85
2022-08-03T01:38:55.393Z,2.00
2022-08-03T01:39:58.587Z,1.92
2022-08-03T01:41:13.247Z,2.00
2022-08-03T01:42:17.963Z,1.90
2022-08-03T01:44:27.947Z,2.00
2022-08-03T01:44:49.435Z,1.90
2022-08-03T01:45:52.365Z,1.92
2022-08-03T01:46:55.507Z,2.08
2022-08-03T01:47:59.219Z,2.00
2022-08-03T01:49:08.928Z,1.85
2022-08-03T01:50:13.220Z,1.70
2022-08-03T01:51:18.462Z,1.70
2022-08-03T01:52:21.738Z,1.80
2022-08-03T01:53:24.746Z,1.95
2022-08-03T01:54:27.778Z,2.13
2022-08-03T01:55:32.214Z,1.90
2022-08-03T01:56:36.784Z,1.80
2022-08-03T01:58:04.934Z,2.20
2022-08-03T01:59:03.535Z,1.67
2022-08-03T02:00:09.591Z,2.08
2022-08-03T02:01:13.812Z,1.85
2022-08-03T02:02:32.320Z,2.03
2022-08-03T02:04:00.782Z,1.88
2022-08-03T02:05:03.410Z,2.05
2022-08-03T02:07:00.173Z,1.80
2022-08-03T02:07:29.826Z,2.15
2022-08-03T02:08:33.621Z,2.10
2022-08-03T02:09:39.017Z,2.30
2022-08-03T02:10:43.261Z,2.00
2022-08-03T02:11:46.841Z,4.30
2022-08-03T02:12:51.221Z,6.13
2022-08-03T02:13:54.886Z,3.85
2022-08-03T02:15:00.237Z,5.05
2022-08-03T02:16:07.530Z,2.63
2022-08-03T02:17:10.631Z,3.83
2022-08-03T02:18:13.499Z,4.40
2022-08-03T02:19:16.738Z,3.67
2022-08-03T02:20:19.674Z,4.35
2022-08-03T02:21:57.448Z,2.65
2022-08-03T02:22:46.721Z,2.20
2022-08-03T02:23:48.559Z,2.13
2022-08-03T02:24:51.317Z,2.15
2022-08-03T02:25:59.998Z,2.40
2022-08-03T02:27:10.806Z,2.20
2022-08-03T02:28:18.722Z,3.22
2022-08-03T02:29:39.909Z,2.53
2022-08-03T02:30:45.596Z,3.97
2022-08-03T02:31:49.778Z,3.58
2022-08-03T02:32:57.241Z,3.97
2022-08-03T02:34:06.752Z,3.95
2022-08-03T02:35:13.420Z,2.70
2022-08-03T02:36:18.408Z,3.80
2022-08-03T02:37:21.764Z,3.25
2022-08-03T02:38:28.294Z,3.17
2022-08-03T02:39:33.501Z,2.70
2022-08-03T02:40:36.952Z,2.92
2022-08-03T02:41:45.373Z,2.78
2022-08-03T02:42:51.990Z,2.60
2022-08-03T02:44:06.515Z,3.05
2022-08-03T02:45:14.892Z,2.15
2022-08-03T02:46:20.260Z,2.22
2022-08-03T02:47:23.128Z,2.00
2022-08-03T02:48:28.836Z,2.28
2022-08-03T02:49:40.953Z,2.10
2022-08-03T02:50:55.344Z,2.20
2022-08-03T02:51:59.182Z,1.95
2022-08-03T02:53:02.736Z,2.10
2022-08-03T02:54:06.600Z,2.20
2022-08-03T02:55:10.502Z,1.88
2022-08-03T02:56:13.508Z,1.70
2022-08-03T02:57:15.510Z,1.70
2022-08-03T02:58:23.845Z,1.90
2022-08-03T02:59:28.494Z,1.98
2022-08-03T03:00:32.781Z,2.15
2022-08-03T03:01:34.563Z,2.17
2022-08-03T03:02:38.119Z,2.30
2022-08-03T03:03:44.910Z,2.13
2022-08-03T03:05:01.364Z,2.30
2022-08-03T03:06:12.969Z,2.17
2022-08-03T03:07:18.062Z,2.10
2022-08-03T03:08:26.256Z,2.10
2022-08-03T03:09:41.787Z,2.00
2022-08-03T03:10:46.761Z,2.10
2022-08-03T03:11:50.894Z,2.00
2022-08-03T03:12:58.717Z,2.05
2022-08-03T03:14:01.149Z,2.28
2022-08-03T03:15:03.983Z,2.17
2022-08-03T03:16:06.546Z,2.58
2022-08-03T03:17:10.446Z,2.00
2022-08-03T03:18:16.803Z,2.20
2022-08-03T03:19:22.534Z,2.17
2022-08-03T03:20:29.771Z,2.47
2022-08-03T03:21:33.633Z,2.67
2022-08-03T03:22:36.788Z,2.65
2022-08-03T03:23:40.877Z,2.45
2022-08-03T03:24:44.343Z,2.33
2022-08-03T03:25:46.713Z,2.30
2022-08-03T03:26:49.037Z,2.10
2022-08-03T03:27:51.367Z,2.10
2022-08-03T03:28:53.269Z,2.30
2022-08-03T03:29:55.207Z,2.08
2022-08-03T03:30:57.051Z,2.42
2022-08-03T03:31:58.833Z,2.00
2022-08-03T03:33:04.507Z,2.00
2022-08-03T03:34:06.813Z,2.10
2022-08-03T03:35:10.051Z,2.25
2022-08-03T03:36:11.771Z,2.13
2022-08-03T03:37:13.540Z,1.85
2022-08-03T03:38:15.262Z,2.22
2022-08-03T03:39:17.036Z,2.30
2022-08-03T03:40:19.681Z,2.22
2022-08-03T03:41:21.417Z,2.40
2022-08-03T03:42:23.604Z,2.10
2022-08-03T03:43:25.458Z,2.40
2022-08-03T03:44:30.481Z,2.05
2022-08-03T03:45:34.542Z,2.35
2022-08-03T03:46:37.577Z,2.30
2022-08-03T03:47:39.508Z,2.13
2022-08-03T03:48:41.372Z,1.90
2022-08-03T03:49:43.838Z,2.40
2022-08-03T03:50:46.247Z,2.40
2022-08-03T03:51:48.034Z,2.20
2022-08-03T03:52:49.757Z,2.50
2022-08-03T03:53:59.184Z,2.47
2022-08-03T03:55:01.768Z,2.40
2022-08-03T03:56:03.882Z,2.20
2022-08-03T03:57:05.625Z,2.90
2022-08-03T03:58:07.915Z,2.50
2022-08-03T03:59:09.629Z,2.40
2022-08-03T04:00:13.610Z,2.30
2022-08-03T04:01:15.691Z,2.55
2022-08-03T04:02:17.760Z,2.03
2022-08-03T04:03:20.178Z,2.60
2022-08-03T04:04:40.579Z,2.90
2022-08-03T04:06:01.016Z,2.47
2022-08-03T04:07:21.521Z,2.40
2022-08-03T04:08:42.019Z,2.50
2022-08-03T04:10:14.235Z,2.67
2022-08-03T04:11:30.401Z,2.85
2022-08-03T04:12:36.129Z,2.53
2022-08-03T04:13:55.746Z,2.40
2022-08-03T04:15:04.697Z,2.50
2022-08-03T04:16:10.791Z,2.97
2022-08-03T04:17:13.752Z,2.20
2022-08-03T04:18:17.238Z,2.38
2022-08-03T04:19:28.410Z,2.45
2022-08-03T04:20:32.769Z,2.22
2022-08-03T04:21:38.179Z,2.60
2022-08-03T04:22:42.201Z,2.60
2022-08-03T04:23:47.813Z,2.50
2022-08-03T04:25:09.411Z,2.50
2022-08-03T04:26:13.687Z,2.10
2022-08-03T04:27:18.037Z,2.35
2022-08-03T04:28:30.542Z,2.00
2022-08-03T04:29:35.836Z,2.40
2022-08-03T04:30:47.641Z,2.08
2022-08-03T04:31:51.441Z,2.30
2022-08-03T04:32:54.585Z,2.50
2022-08-03T04:33:57.618Z,2.03
2022-08-03T04:34:59.535Z,2.05
2022-08-03T04:36:04.460Z,2.42
2022-08-03T04:37:12.275Z,2.20
2022-08-03T04:38:18.573Z,2.25
2022-08-03T04:39:26.751Z,2.20
2022-08-03T04:40:33.280Z,2.30
2022-08-03T04:42:07.667Z,2.40
2022-08-03T04:43:00.160Z,3.08
2022-08-03T04:44:03.569Z,2.08
2022-08-03T04:45:06.618Z,2.35
2022-08-03T04:46:09.360Z,2.22
2022-08-03T04:47:11.150Z,2.30
2022-08-03T04:48:15.450Z,2.60
2022-08-03T04:49:18.271Z,2.05
2022-08-03T04:50:21.671Z,2.17
2022-08-03T04:51:23.810Z,2.65
2022-08-03T04:52:25.591Z,2.72
2022-08-03T04:53:27.379Z,2.55
2022-08-03T04:54:29.263Z,2.70
2022-08-03T04:55:33.391Z,2.60
2022-08-03T04:56:35.176Z,2.65
2022-08-03T04:57:37.053Z,2.90
2022-08-03T04:58:38.758Z,2.90
2022-08-03T04:59:40.947Z,2.88
2022-08-03T05:00:43.399Z,2.75
2022-08-03T05:01:45.336Z,3.20
2022-08-03T05:02:47.138Z,3.00
2022-08-03T05:03:48.964Z,3.08
2022-08-03T05:04:50.971Z,3.28
2022-08-03T05:06:01.635Z,3.05
2022-08-03T05:07:11.583Z,3.22
2022-08-03T05:08:14.253Z,3.10
2022-08-03T05:09:16.253Z,3.40
2022-08-03T05:10:37.989Z,2.97
2022-08-03T05:11:39.714Z,3.10
2022-08-03T05:12:41.787Z,3.40
2022-08-03T05:13:47.514Z,3.28
2022-08-03T05:14:49.448Z,3.00
2022-08-03T05:15:51.184Z,2.92
2022-08-03T05:16:52.949Z,2.80
2022-08-03T05:17:54.634Z,2.80
2022-08-03T05:18:56.355Z,2.90
2022-08-03T05:19:58.171Z,2.38
2022-08-03T05:20:59.884Z,3.22
2022-08-03T05:22:01.794Z,2.80
2022-08-03T05:23:04.129Z,3.33
2022-08-03T05:24:06.014Z,3.42
2022-08-03T05:25:08.003Z,2.75
2022-08-03T05:26:11.896Z,3.05
2022-08-03T05:27:22.847Z,2.95
2022-08-03T05:29:26.259Z,3.05
2022-08-03T05:30:33.984Z,2.92
2022-08-03T05:31:36.032Z,3.08
2022-08-03T05:32:37.744Z,3.22
2022-08-03T05:33:39.891Z,3.00
2022-08-03T05:34:41.679Z,3.45
2022-08-03T05:36:01.981Z,3.83
2022-08-03T05:37:05.209Z,3.13
2022-08-03T05:38:07.205Z,2.88
2022-08-03T05:39:11.085Z,3.00
2022-08-03T05:40:13.279Z,3.08
2022-08-03T05:41:20.192Z,3.03
2022-08-03T05:42:24.804Z,2.47
2022-08-03T05:43:26.524Z,3.10
2022-08-03T05:44:28.616Z,3.05
2022-08-03T05:45:32.469Z,2.42
2022-08-03T05:46:34.193Z,2.83
2022-08-03T05:47:35.895Z,2.50
2022-08-03T05:48:37.745Z,2.65
2022-08-03T05:49:39.574Z,2.65
2022-08-03T05:50:42.947Z,2.65
2022-08-03T05:51:44.820Z,2.55
2022-08-03T05:52:47.128Z,2.83
2022-08-03T05:53:49.293Z,3.05
2022-08-03T05:54:57.468Z,3.00
2022-08-03T05:56:14.697Z,2.65
2022-08-03T05:57:17.236Z,2.47
2022-08-03T05:58:19.150Z,2.72
2022-08-03T05:59:37.540Z,3.10
2022-08-03T06:00:40.232Z,2.90
2022-08-03T06:01:42.069Z,2.53
2022-08-03T06:02:44.001Z,3.08
2022-08-03T06:03:46.465Z,3.05
2022-08-03T06:04:48.258Z,2.83
2022-08-03T06:06:00.119Z,2.72
2022-08-03T06:07:02.397Z,2.55
2022-08-03T06:08:04.294Z,2.88
2022-08-03T06:09:06.061Z,3.20
2022-08-03T06:10:37.491Z,2.75
2022-08-03T06:11:30.799Z,2.85
2022-08-03T06:12:36.123Z,2.65
2022-08-03T06:13:39.061Z,2.78
2022-08-03T06:14:40.800Z,3.33
2022-08-03T06:15:42.684Z,3.00
2022-08-03T06:16:44.402Z,2.88
2022-08-03T06:17:50.198Z,3.05
2022-08-03T06:18:51.896Z,3.13
2022-08-03T06:19:54.070Z,3.08
2022-08-03T06:20:56.019Z,3.13
2022-08-03T06:21:58.495Z,2.72
2022-08-03T06:23:01.605Z,2.95
2022-08-03T06:24:03.482Z,3.08
2022-08-03T06:25:12.677Z,2.70
2022-08-03T06:26:14.821Z,2.92
2022-08-03T06:27:16.687Z,3.00
2022-08-03T06:28:51.195Z,3.00
2022-08-03T06:29:40.212Z,2.88
2022-08-03T06:30:42.149Z,3.00
2022-08-03T06:31:43.906Z,2.58
2022-08-03T06:32:51.714Z,2.47
2022-08-03T06:34:32.872Z,2.78
2022-08-03T06:35:16.468Z,2.83
2022-08-03T06:36:18.166Z,2.53
2022-08-03T06:37:19.875Z,3.33
2022-08-03T06:38:22.098Z,2.85
2022-08-03T06:39:23.945Z,2.38
2022-08-03T06:40:29.948Z,2.35
2022-08-03T06:41:38.246Z,2.55
2022-08-03T06:42:46.856Z,2.70
2022-08-03T06:44:03.014Z,2.45
2022-08-03T06:45:08.963Z,2.85
2022-08-03T06:46:11.146Z,2.70
2022-08-03T06:47:12.984Z,2.60
2022-08-03T06:48:14.772Z,2.60
2022-08-03T06:49:16.639Z,2.60
2022-08-03T06:50:22.954Z,2.72
2022-08-03T06:52:05.134Z,2.78
2022-08-03T06:52:49.173Z,4.00
2022-08-03T06:53:51.044Z,2.95
2022-08-03T06:54:52.749Z,2.90
2022-08-03T06:55:55.293Z,3.05
2022-08-03T06:56:57.191Z,2.90
2022-08-03T06:57:59.805Z,2.80
2022-08-03T06:59:05.337Z,2.75
2022-08-03T07:00:12.708Z,3.00
2022-08-03T07:01:14.719Z,3.65
2022-08-03T07:02:20.889Z,3.00
2022-08-03T07:03:22.741Z,3.33
2022-08-03T07:04:24.466Z,2.60
2022-08-03T07:05:26.554Z,3.80
2022-08-03T07:06:28.296Z,3.05
2022-08-03T07:07:30.146Z,3.20
2022-08-03T07:08:34.323Z,3.42
2022-08-03T07:09:36.383Z,3.35
2022-08-03T07:10:41.280Z,3.55
2022-08-03T07:11:43.045Z,3.70
2022-08-03T07:12:55.586Z,3.55
2022-08-03T07:13:58.401Z,3.28
2022-08-03T07:15:02.916Z,3.75
2022-08-03T07:16:05.409Z,3.20
2022-08-03T07:17:11.907Z,3.40
2022-08-03T07:18:13.992Z,2.90
2022-08-03T07:19:15.946Z,3.70
2022-08-03T07:20:18.411Z,3.65
2022-08-03T07:21:20.138Z,3.30
2022-08-03T07:22:21.905Z,3.90
2022-08-03T07:23:23.727Z,3.78
2022-08-03T07:24:25.422Z,3.42
2022-08-03T07:25:29.103Z,3.33
2022-08-03T07:26:31.069Z,3.70
2022-08-03T07:27:33.910Z,3.58
2022-08-03T07:28:35.630Z,3.28
2022-08-03T07:29:37.662Z,3.53
2022-08-03T07:30:39.397Z,3.50
2022-08-03T07:31:42.227Z,3.67
2022-08-03T07:32:50.286Z,4.18
2022-08-03T07:33:52.671Z,4.38
2022-08-03T07:34:58.474Z,4.20
2022-08-03T07:36:02.436Z,3.88
2022-08-03T07:37:04.542Z,4.18
2022-08-03T07:38:07.179Z,3.90
2022-08-03T07:39:15.838Z,3.33
2022-08-03T07:40:20.234Z,3.30
2022-08-03T07:41:22.397Z,3.00
2022-08-03T07:42:24.161Z,3.38
2022-08-03T07:43:25.847Z,3.28
2022-08-03T07:44:27.610Z,3.00
2022-08-03T07:45:31.194Z,3.63
2022-08-03T07:46:33.573Z,3.28
2022-08-03T07:47:36.034Z,3.38
2022-08-03T07:48:37.933Z,3.53
2022-08-03T07:49:41.212Z,3.38
2022-08-03T07:50:43.137Z,3.70
2022-08-03T07:51:44.854Z,3.78
2022-08-03T07:52:49.956Z,3.67
2022-08-03T07:53:52.994Z,3.60
2022-08-03T07:54:54.880Z,4.22
2022-08-03T07:55:57.241Z,3.63
2022-08-03T07:56:58.938Z,3.28
2022-08-03T07:58:05.179Z,3.33
2022-08-03T07:59:06.873Z,3.50
2022-08-03T08:00:16.133Z,3.20
2022-08-03T08:01:19.630Z,3.08
2022-08-03T08:02:21.474Z,3.50
2022-08-03T08:03:23.462Z,3.00
2022-08-03T08:04:25.306Z,3.47
2022-08-03T08:05:28.201Z,3.17
2022-08-03T08:06:31.868Z,3.60
2022-08-03T08:07:33.878Z,3.50
2022-08-03T08:08:35.603Z,3.13
2022-08-03T08:09:37.788Z,3.50
2022-08-03T08:10:39.524Z,3.53
2022-08-03T08:11:41.218Z,3.75
2022-08-03T08:12:42.976Z,3.72
2022-08-03T08:13:44.727Z,3.60
2022-08-03T08:14:46.881Z,4.07
2022-08-03T08:15:48.637Z,3.60
2022-08-03T08:16:52.183Z,3.90
2022-08-03T08:17:56.862Z,3.60
2022-08-03T08:18:58.763Z,3.50
2022-08-03T08:20:00.457Z,3.47
2022-08-03T08:21:03.574Z,3.28
2022-08-03T08:22:06.976Z,3.53
2022-08-03T08:23:19.973Z,3.35
2022-08-03T08:24:30.820Z,3.40
2022-08-03T08:25:33.553Z,3.13
2022-08-03T08:26:35.494Z,3.28
2022-08-03T08:28:29.926Z,3.65
2022-08-03T08:29:10.687Z,3.42
2022-08-03T08:30:19.143Z,3.83
2022-08-03T08:31:21.274Z,3.22
2022-08-03T08:32:23.125Z,3.60
2022-08-03T08:33:25.840Z,3.53
2022-08-03T08:34:27.808Z,3.30
2022-08-03T08:35:30.086Z,2.80
2022-08-03T08:36:35.873Z,3.10
2022-08-03T08:37:38.109Z,3.13
2022-08-03T08:38:42.770Z,3.60
2022-08-03T08:39:44.478Z,3.47
2022-08-03T08:40:46.497Z,3.20
2022-08-03T08:41:53.334Z,3.38
2022-08-03T08:42:59.176Z,3.40
2022-08-03T08:44:02.025Z,3.40
2022-08-03T08:45:09.320Z,3.28
2022-08-03T08:46:23.497Z,3.70
2022-08-03T08:47:29.523Z,4.13
2022-08-03T08:48:52.968Z,3.40
2022-08-03T08:50:09.292Z,3.60
2022-08-03T08:51:13.088Z,3.78
2022-08-03T08:52:15.198Z,3.50
2022-08-03T08:53:29.285Z,3.22
2022-08-03T08:54:33.443Z,3.92
2022-08-03T08:55:59.695Z,3.90
2022-08-03T08:57:02.067Z,3.53
2022-08-03T08:58:06.410Z,3.72
2022-08-03T08:59:08.825Z,3.50
2022-08-03T09:00:15.669Z,3.05
2022-08-03T09:01:20.874Z,3.15
2022-08-03T09:02:24.310Z,3.60
2022-08-03T09:03:29.213Z,3.35
2022-08-03T09:04:33.364Z,3.42
2022-08-03T09:05:55.033Z,3.15
2022-08-03T09:07:18.816Z,2.95
2022-08-03T09:08:19.117Z,3.17
2022-08-03T09:10:04.648Z,3.55
2022-08-03T09:10:42.632Z,3.42
2022-08-03T09:11:54.503Z,3.60
2022-08-03T09:13:02.804Z,3.10
2022-08-03T09:14:05.470Z,3.15
2022-08-03T09:15:25.405Z,3.42
2022-08-03T09:16:27.135Z,3.17
2022-08-03T09:17:40.987Z,3.35
2022-08-03T09:18:53.689Z,3.20
2022-08-03T09:20:08.505Z,2.67
2022-08-03T09:21:31.297Z,3.05
2022-08-03T09:22:34.165Z,2.65
2022-08-03T09:24:02.411Z,2.92
2022-08-03T09:25:27.208Z,3.13
2022-08-03T09:26:31.119Z,2.30
2022-08-03T09:27:46.609Z,2.80
2022-08-03T09:29:05.681Z,2.83
2022-08-03T09:30:33.868Z,2.65
2022-08-03T09:31:43.538Z,2.45
2022-08-03T09:32:47.057Z,2.38
2022-08-03T09:33:49.166Z,2.38
2022-08-03T09:34:56.539Z,2.42
2022-08-03T09:36:00.014Z,2.40
2022-08-03T09:37:01.849Z,2.30
2022-08-03T09:38:12.545Z,2.28
2022-08-03T09:39:30.099Z,2.75
2022-08-03T09:40:43.792Z,2.38
2022-08-03T09:41:48.615Z,2.33
2022-08-03T09:42:56.878Z,2.33
2022-08-03T09:43:58.613Z,2.20
2022-08-03T09:45:00.680Z,3.30
2022-08-03T09:46:04.720Z,2.83
2022-08-03T09:47:06.608Z,1.98
2022-08-03T09:48:21.656Z,2.40
2022-08-03T09:49:23.893Z,2.33
2022-08-03T09:50:25.662Z,2.20
2022-08-03T09:52:17.980Z,2.42
2022-08-03T09:52:52.631Z,2.20
2022-08-03T09:54:00.243Z,2.30
2022-08-03T09:56:30.934Z,2.17
2022-08-03T09:56:41.637Z,2.13
2022-08-03T09:57:47.565Z,2.40
2022-08-03T09:58:50.759Z,2.40
2022-08-03T10:00:04.481Z,2.22
2022-08-03T10:01:08.128Z,2.65
2022-08-03T10:02:27.800Z,2.38
2022-08-03T10:03:32.637Z,2.30
2022-08-03T10:04:34.351Z,1.70
2022-08-03T10:05:36.056Z,2.70
2022-08-03T10:06:37.751Z,2.63
2022-08-03T10:07:47.987Z,2.05
2022-08-03T10:09:25.041Z,1.70
2022-08-03T10:10:30.671Z,1.80
2022-08-03T10:11:40.965Z,1.92
2022-08-03T10:12:45.224Z,1.65
2022-08-03T10:13:47.912Z,1.90
2022-08-03T10:14:50.185Z,2.00
2022-08-03T10:16:25.213Z,1.80
2022-08-03T10:17:13.995Z,2.03
2022-08-03T10:18:16.063Z,2.25
2022-08-03T10:19:18.301Z,2.22
2022-08-03T10:20:20.042Z,2.42
2022-08-03T10:21:22.375Z,2.20
2022-08-03T10:22:28.854Z,1.83
2022-08-03T10:23:34.644Z,2.13
2022-08-03T10:24:39.443Z,2.35
2022-08-03T10:25:43.928Z,2.20
2022-08-03T10:26:49.919Z,2.47
2022-08-03T10:27:53.375Z,2.13
2022-08-03T10:29:01.151Z,2.47
2022-08-03T10:30:08.396Z,2.13
2022-08-03T10:31:11.492Z,2.17
2022-08-03T10:32:19.282Z,2.22
2022-08-03T10:33:51.765Z,2.22
2022-08-03T10:34:51.884Z,2.20
2022-08-03T10:36:02.443Z,2.00
2022-08-03T10:37:10.393Z,1.85
2022-08-03T10:38:19.650Z,1.92
2022-08-03T10:39:24.143Z,1.70
2022-08-03T10:41:52.358Z,1.90
2022-08-03T10:42:59.570Z,2.25
2022-08-03T10:44:11.171Z,2.08
2022-08-03T10:45:28.470Z,2.10
2022-08-03T10:46:30.187Z,2.10
2022-08-03T10:47:33.226Z,2.08
2022-08-03T10:48:36.558Z,2.05
2022-08-03T10:49:39.145Z,2.28
2022-08-03T10:50:43.540Z,2.10
2022-08-03T10:51:46.593Z,2.20
2022-08-03T10:52:54.838Z,2.60
2022-08-03T10:53:56.600Z,2.50
2022-08-03T10:55:19.294Z,2.30
2022-08-03T10:56:54.485Z,2.72
2022-08-03T10:57:59.196Z,2.55
2022-08-03T10:59:03.770Z,2.65
2022-08-03T11:00:07.151Z,2.35
2022-08-03T11:01:11.030Z,2.55
2022-08-03T11:02:14.408Z,2.53
2022-08-03T11:03:16.392Z,2.75
2022-08-03T11:04:20.048Z,2.63
2022-08-03T11:05:27.086Z,2.45
2022-08-03T11:06:28.953Z,2.60
2022-08-03T11:07:39.082Z,2.45
2022-08-03T11:08:40.858Z,2.30
2022-08-03T11:09:45.303Z,2.30
2022-08-03T11:10:48.678Z,2.28
2022-08-03T11:11:51.600Z,2.60
2022-08-03T11:13:07.292Z,2.47
2022-08-03T11:14:21.074Z,2.55
2022-08-03T11:15:33.624Z,2.65
2022-08-03T11:16:39.333Z,2.65
2022-08-03T11:18:11.227Z,2.40
2022-08-03T11:19:16.251Z,2.38
2022-08-03T11:20:46.910Z,2.47
2022-08-03T11:21:51.182Z,2.53
2022-08-03T11:22:54.672Z,2.08
2022-08-03T11:24:04.408Z,2.80
2022-08-03T11:25:08.344Z,2.28
2022-08-03T11:26:30.079Z,2.33
2022-08-03T11:27:34.867Z,2.38
2022-08-03T11:28:39.058Z,2.60
2022-08-03T11:30:00.141Z,2.58
2022-08-03T11:31:48.021Z,7.20
2022-08-03T11:32:46.862Z,2.50
2022-08-03T11:34:22.655Z,2.28
2022-08-03T11:35:26.936Z,2.38
2022-08-03T11:36:32.220Z,2.35
2022-08-03T11:37:34.778Z,3.00
2022-08-03T11:39:16.730Z,2.60
2022-08-03T11:40:39.547Z,2.28
2022-08-03T11:41:44.841Z,2.40
2022-08-03T11:42:48.262Z,2.55
2022-08-03T11:43:50.008Z,2.40
2022-08-03T11:44:56.443Z,2.47
2022-08-03T11:46:07.986Z,2.30
2022-08-03T11:47:17.856Z,2.53
2022-08-03T11:48:20.728Z,2.10
2022-08-03T11:49:24.127Z,1.98
2022-08-03T11:50:26.032Z,2.38
2022-08-03T11:51:32.269Z,2.00
2022-08-03T11:52:39.446Z,1.90
2022-08-03T11:53:42.076Z,2.25
2022-08-03T11:54:44.415Z,2.17
2022-08-03T11:55:49.164Z,2.92
2022-08-03T11:56:51.454Z,2.20
2022-08-03T11:59:10.651Z,2.40
2022-08-03T11:59:32.974Z,1.92
2022-08-03T12:00:34.739Z,1.80
2022-08-03T12:01:37.696Z,2.15
2022-08-03T12:02:39.414Z,2.60
2022-08-03T12:03:41.224Z,2.10
2022-08-03T12:04:53.485Z,2.55
2022-08-03T12:05:55.240Z,2.30
2022-08-03T12:07:01.590Z,2.30
2022-08-03T12:08:06.743Z,2.35
2022-08-03T12:09:18.140Z,2.40
2022-08-03T12:10:23.827Z,2.38
2022-08-03T12:11:25.591Z,2.47
2022-08-03T12:12:27.325Z,2.45
2022-08-03T12:14:44.469Z,2.85
2022-08-03T12:15:06.020Z,2.45
2022-08-03T12:16:09.295Z,2.40
2022-08-03T12:17:11.045Z,2.63
2022-08-03T12:18:16.253Z,2.30
2022-08-03T12:19:18.002Z,2.40
2022-08-03T12:20:34.392Z,2.58
2022-08-03T12:21:57.240Z,2.78
2022-08-03T12:23:04.894Z,3.50
2022-08-03T12:24:06.752Z,2.50
2022-08-03T12:25:09.717Z,2.35
2022-08-03T12:26:12.150Z,2.58
2022-08-03T12:27:23.570Z,2.70
2022-08-03T12:28:37.081Z,2.40
2022-08-03T12:29:40.024Z,2.30
2022-08-03T12:30:43.141Z,2.83
2022-08-03T12:31:45.003Z,2.97
2022-08-03T12:32:47.052Z,2.80
2022-08-03T12:34:03.760Z,2.35
2022-08-03T12:35:06.128Z,2.30
2022-08-03T12:36:09.083Z,2.88
2022-08-03T12:37:29.817Z,2.58
2022-08-03T12:38:33.533Z,3.08
2022-08-03T12:39:38.556Z,2.58
2022-08-03T12:41:13.719Z,2.40
2022-08-03T12:42:15.473Z,2.55
2022-08-03T12:43:18.245Z,2.60
2022-08-03T12:44:30.538Z,2.63
2022-08-03T12:45:32.237Z,2.47
2022-08-03T12:46:36.346Z,3.28
2022-08-03T12:48:01.461Z,3.15
2022-08-03T12:49:12.694Z,3.25
2022-08-03T12:50:26.808Z,3.17
2022-08-03T12:51:29.970Z,2.08
2022-08-03T12:52:43.580Z,2.08
2022-08-03T12:53:52.731Z,1.80
2022-08-03T12:54:58.869Z,2.10
2022-08-03T12:56:06.324Z,2.17
2022-08-03T12:57:08.171Z,2.30
2022-08-03T12:58:29.092Z,2.13
2022-08-03T12:59:35.216Z,2.10
2022-08-03T13:00:55.757Z,2.20
2022-08-03T13:01:58.101Z,2.00
2022-08-03T13:03:38.483Z,2.00
2022-08-03T13:04:28.814Z,1.83
2022-08-03T13:05:46.459Z,1.73
2022-08-03T13:07:03.043Z,2.40
2022-08-03T13:08:05.202Z,1.95
2022-08-03T13:09:08.336Z,1.90
2022-08-03T13:10:11.119Z,1.83
2022-08-03T13:11:19.113Z,1.70
2022-08-03T13:12:26.299Z,1.95
2022-08-03T13:13:40.454Z,1.88
2022-08-03T13:14:43.852Z,1.70
2022-08-03T13:15:48.138Z,1.67
2022-08-03T13:16:50.011Z,1.83
2022-08-03T13:17:51.705Z,1.83
2022-08-03T13:18:54.416Z,1.65
2022-08-03T13:19:56.645Z,1.90
2022-08-03T13:20:58.443Z,1.88
2022-08-03T13:22:04.339Z,1.70
2022-08-03T13:23:06.501Z,1.70
2022-08-03T13:24:14.745Z,1.58
2022-08-03T13:25:16.708Z,1.50
2022-08-03T13:26:18.445Z,1.58
2022-08-03T13:28:01.886Z,1.50
2022-08-03T13:28:41.921Z,1.73
2022-08-03T13:29:44.116Z,1.88
2022-08-03T13:30:45.856Z,1.73
2022-08-03T13:31:50.882Z,1.52
2022-08-03T13:32:53.070Z,1.60
2022-08-03T13:33:54.945Z,1.60
2022-08-03T13:35:03.931Z,1.70
2022-08-03T13:36:05.817Z,1.63
2022-08-03T13:37:09.803Z,1.50
2022-08-03T13:38:12.041Z,1.83
2022-08-03T13:39:13.945Z,1.55
2022-08-03T13:40:15.879Z,1.50
2022-08-03T13:41:17.575Z,1.52
2022-08-03T13:42:19.353Z,1.50
2022-08-03T13:43:22.235Z,1.70
2022-08-03T13:44:29.399Z,2.67
2022-08-03T13:45:31.682Z,1.70
2022-08-03T13:46:33.385Z,1.60
2022-08-03T13:47:35.120Z,1.55
2022-08-03T13:48:37.824Z,1.60
2022-08-03T13:49:39.755Z,1.55
2022-08-03T13:50:43.180Z,1.67
2022-08-03T13:51:45.094Z,1.63
2022-08-03T13:52:47.615Z,1.75
2022-08-03T13:53:50.496Z,1.52
2022-08-03T13:54:52.417Z,1.65
2022-08-03T13:55:54.179Z,3.42
2022-08-03T13:57:00.583Z,1.88
2022-08-03T13:58:17.882Z,1.60
2022-08-03T13:59:20.662Z,5.43
2022-08-03T14:00:29.239Z,1.63
2022-08-03T14:01:54.561Z,1.73
2022-08-03T14:02:55.319Z,2.05
2022-08-03T14:03:59.005Z,1.70
2022-08-03T14:05:00.699Z,1.90
2022-08-03T14:06:02.421Z,1.50
2022-08-03T14:07:04.291Z,1.95
2022-08-03T14:08:07.232Z,1.55
2022-08-03T14:09:08.922Z,1.70
2022-08-03T14:10:10.763Z,1.65
2022-08-03T14:11:12.560Z,1.50
2022-08-03T14:12:14.392Z,1.88
2022-08-03T14:13:17.471Z,1.80
2022-08-03T14:14:19.944Z,1.80
2022-08-03T14:15:21.790Z,1.70
2022-08-03T14:16:23.525Z,1.58
2022-08-03T14:17:25.494Z,1.80
2022-08-03T14:18:33.267Z,1.67
2022-08-03T14:19:52.420Z,2.03
2022-08-03T14:20:56.451Z,2.17
2022-08-03T14:22:06.022Z,1.80
2022-08-03T14:23:09.083Z,1.90
2022-08-03T14:24:10.839Z,1.83
2022-08-03T14:25:12.579Z,1.65
2022-08-03T14:26:15.577Z,1.70
2022-08-03T14:27:17.427Z,1.75
2022-08-03T14:28:23.805Z,1.80
2022-08-03T14:29:25.654Z,1.67
2022-08-03T14:30:27.518Z,1.77
2022-08-03T14:32:10.342Z,2.20
2022-08-03T14:32:50.957Z,1.80
2022-08-03T14:33:52.973Z,1.70
2022-08-03T14:34:54.858Z,1.90
2022-08-03T14:35:57.013Z,2.20
2022-08-03T14:36:59.044Z,1.77
2022-08-03T14:38:00.791Z,1.80
2022-08-03T14:39:02.625Z,1.95
2022-08-03T14:40:05.384Z,2.13
2022-08-03T14:41:07.403Z,2.50
2022-08-03T14:42:14.185Z,1.80
2022-08-03T14:43:18.156Z,1.98
2022-08-03T14:44:19.930Z,1.90
2022-08-03T14:45:21.828Z,1.80
2022-08-03T14:46:23.738Z,1.80